createdAt,value
2019-05-26T00:00:28.071Z,156.00
2019-05-26T00:01:28.045Z,172.00
2019-05-26T00:02:28.038Z,192.00
2019-05-26T00:03:28.023Z,216.00
2019-05-26T00:04:28.015Z,240.00
2019-05-26T00:05:28.057Z,268.00
2019-05-26T00:06:27.993Z,296.00
2019-05-26T00:07:30.841Z,328.00
2019-05-26T00:08:27.971Z,360.00
2019-05-26T00:09:27.960Z,392.00
2019-05-26T00:10:27.951Z,428.00
2019-05-26T00:11:27.992Z,468.00
2019-05-26T00:12:27.929Z,504.00
2019-05-26T00:13:27.920Z,548.00
2019-05-26T00:14:27.907Z,592.00
2019-05-26T00:15:27.896Z,636.00
2019-05-26T00:16:27.889Z,684.00
2019-05-26T00:17:28.028Z,740.00
2019-05-26T00:18:27.867Z,804.00
2019-05-26T00:19:27.856Z,868.00
2019-05-26T00:20:27.846Z,936.00
2019-05-26T00:21:27.833Z,1012.00
2019-05-26T00:22:27.822Z,1084.00
2019-05-26T00:23:27.867Z,1160.00
2019-05-26T00:24:27.802Z,1260.00
2019-05-26T00:25:27.793Z,1620.00
2019-05-26T00:26:27.780Z,2132.00
2019-05-26T00:27:27.774Z,2600.00
2019-05-26T00:28:27.759Z,2940.00
2019-05-26T00:29:27.797Z,3200.00
2019-05-26T00:30:27.739Z,3516.00
2019-05-26T00:31:27.727Z,3692.00
2019-05-26T00:32:27.716Z,3892.00
2019-05-26T00:33:27.707Z,4032.00
2019-05-26T00:34:27.698Z,4340.00
2019-05-26T00:35:27.746Z,4688.00
2019-05-26T00:36:27.676Z,4980.00
2019-05-26T00:37:27.662Z,5072.00
2019-05-26T00:38:27.653Z,5252.00
2019-05-26T00:39:27.647Z,5620.00
2019-05-26T00:40:27.784Z,5820.00
2019-05-26T00:41:27.619Z,6248.00
2019-05-26T00:42:27.611Z,6472.00
2019-05-26T00:43:27.601Z,6528.00
2019-05-26T00:44:27.594Z,6936.00
2019-05-26T00:45:27.580Z,6956.00
2019-05-26T00:46:27.622Z,7332.00
2019-05-26T00:47:27.560Z,7716.00
2019-05-26T00:48:27.559Z,8120.00
2019-05-26T00:49:27.537Z,8232.00
2019-05-26T00:50:27.525Z,8268.00
2019-05-26T00:51:27.514Z,8532.00
2019-05-26T00:52:27.602Z,8660.00
2019-05-26T00:53:27.497Z,8644.00
2019-05-26T00:54:27.483Z,8928.00
2019-05-26T00:55:27.473Z,8984.00
2019-05-26T00:56:27.463Z,9608.00
2019-05-26T00:57:27.451Z,9760.00
2019-05-26T00:58:27.590Z,9888.00
2019-05-26T00:59:27.430Z,10332.00
2019-05-26T01:00:27.420Z,11336.00
2019-05-26T01:01:27.416Z,11480.00
2019-05-26T01:02:27.401Z,11588.00
2019-05-26T01:03:27.391Z,11716.00
2019-05-26T01:04:27.435Z,11772.00
2019-05-26T01:05:27.370Z,11860.00
2019-05-26T01:06:27.359Z,11120.00
2019-05-26T01:07:27.348Z,11144.00
2019-05-26T01:08:27.338Z,11584.00
2019-05-26T01:09:27.325Z,11212.00
2019-05-26T01:10:27.366Z,12300.00
2019-05-26T01:11:27.304Z,13312.00
2019-05-26T01:12:27.299Z,13648.00
2019-05-26T01:13:27.285Z,14000.00
2019-05-26T01:14:27.273Z,14396.00
2019-05-26T01:15:27.261Z,15104.00
2019-05-26T01:17:27.391Z,26048.00
2019-05-26T01:18:27.233Z,31104.00
2019-05-26T01:19:27.221Z,30304.00
2019-05-26T01:20:27.210Z,30016.00
2019-05-26T01:21:27.198Z,31968.00
2019-05-26T01:22:27.191Z,36672.00
2019-05-26T01:23:27.231Z,40704.00
2019-05-26T01:24:27.167Z,49632.00
2019-05-26T01:25:27.159Z,43232.00
2019-05-26T01:26:27.145Z,54304.00
2019-05-26T01:27:27.134Z,41664.00
2019-05-26T01:28:27.129Z,40992.00
2019-05-26T01:30:27.157Z,66784.00
2019-05-26T01:31:27.096Z,55872.00
2019-05-26T01:32:27.087Z,42592.00
2019-05-26T01:33:27.075Z,39520.00
2019-05-26T01:34:27.066Z,39392.00
2019-05-26T01:35:27.054Z,43840.00
2019-05-26T01:36:27.092Z,50176.00
2019-05-26T01:37:27.034Z,52096.00
2019-05-26T01:38:27.024Z,50784.00
2019-05-26T01:39:27.015Z,55648.00
2019-05-26T01:40:27.001Z,50912.00
2019-05-26T01:41:27.141Z,53536.00
2019-05-26T01:42:26.981Z,56896.00
2019-05-26T01:43:26.976Z,58112.00
2019-05-26T01:44:26.960Z,59552.00
2019-05-26T01:45:26.962Z,62144.00
2019-05-26T01:46:26.940Z,64672.00
2019-05-26T01:47:26.978Z,63744.00
2019-05-26T01:48:26.921Z,70208.00
2019-05-26T01:49:26.910Z,73184.00
2019-05-26T01:50:26.899Z,74592.00
2019-05-26T01:51:26.891Z,68896.00
2019-05-26T01:53:26.919Z,62880.00
2019-05-26T01:54:26.860Z,66688.00
2019-05-26T01:55:26.847Z,73568.00
2019-05-26T01:56:26.837Z,78016.00
2019-05-26T01:57:26.830Z,72928.00
2019-05-26T01:58:26.967Z,65952.00
2019-05-26T01:59:26.809Z,69600.00
2019-05-26T02:00:26.798Z,70848.00
2019-05-26T02:01:26.788Z,62912.00
2019-05-26T02:02:26.774Z,53088.00
2019-05-26T02:03:26.837Z,64000.00
2019-05-26T02:04:26.804Z,64032.00
2019-05-26T02:05:26.750Z,69312.00
2019-05-26T02:06:26.735Z,68896.00
2019-05-26T02:07:26.727Z,62624.00
2019-05-26T02:08:38.807Z,58688.00
2019-05-26T02:09:51.563Z,55456.00
2019-05-26T02:10:51.551Z,55872.00
2019-05-26T02:11:51.544Z,57184.00
2019-05-26T02:12:51.532Z,56256.00
2019-05-26T02:13:51.522Z,54528.00
2019-05-26T02:14:51.661Z,52608.00
2019-05-26T02:15:51.502Z,51456.00
2019-05-26T02:16:51.493Z,52704.00
2019-05-26T02:17:51.491Z,52896.00
2019-05-26T02:18:51.473Z,49888.00
2019-05-26T02:19:51.461Z,47904.00
2019-05-26T02:20:51.529Z,44416.00
2019-05-26T02:21:51.443Z,43712.00
2019-05-26T02:22:51.435Z,46304.00
2019-05-26T02:23:51.423Z,47072.00
2019-05-26T02:24:51.429Z,43712.00
2019-05-26T02:25:51.404Z,44576.00
2019-05-26T02:26:51.504Z,46848.00
2019-05-26T02:27:51.389Z,47392.00
2019-05-26T02:28:51.376Z,46656.00
2019-05-26T02:29:51.368Z,47712.00
2019-05-26T02:30:51.358Z,43872.00
2019-05-26T02:31:51.347Z,41888.00
2019-05-26T02:32:51.488Z,42432.00
2019-05-26T02:33:51.326Z,44288.00
2019-05-26T02:34:51.325Z,47008.00
2019-05-26T02:35:51.309Z,47968.00
2019-05-26T02:36:51.311Z,48736.00
2019-05-26T02:37:51.288Z,50944.00
2019-05-26T02:39:02.045Z,50912.00
2019-05-26T02:40:16.092Z,47488.00
2019-05-26T02:41:16.066Z,49056.00
2019-05-26T02:42:16.066Z,52160.00
2019-05-26T02:43:16.046Z,51136.00
2019-05-26T02:44:16.087Z,47840.00
2019-05-26T02:45:16.039Z,48512.00
2019-05-26T02:46:16.014Z,49728.00
2019-05-26T02:47:16.004Z,48544.00
2019-05-26T02:48:15.992Z,48288.00
2019-05-26T02:49:15.980Z,50080.00
2019-05-26T02:50:16.125Z,50752.00
2019-05-26T02:51:15.964Z,46912.00
2019-05-26T02:52:15.965Z,45440.00
2019-05-26T02:53:15.941Z,48576.00
2019-05-26T02:54:15.932Z,48800.00
2019-05-26T02:55:15.923Z,46624.00
2019-05-26T02:56:15.960Z,46080.00
2019-05-26T02:57:15.901Z,44704.00
2019-05-26T02:58:15.900Z,43424.00
2019-05-26T02:59:15.883Z,42656.00
2019-05-26T03:00:15.871Z,45600.00
2019-05-26T03:01:15.860Z,43904.00
2019-05-26T03:02:15.902Z,43552.00
2019-05-26T03:03:15.851Z,42944.00
2019-05-26T03:04:15.834Z,44032.00
2019-05-26T03:05:15.821Z,46176.00
2019-05-26T03:06:15.811Z,45760.00
2019-05-26T03:07:15.802Z,44192.00
2019-05-26T03:08:15.958Z,45280.00
2019-05-26T03:09:22.598Z,46400.00
2019-05-26T03:10:40.587Z,45824.00
2019-05-26T03:11:40.576Z,45952.00
2019-05-26T03:12:40.561Z,45632.00
2019-05-26T03:13:40.605Z,46368.00
2019-05-26T03:14:40.545Z,48096.00
2019-05-26T03:15:40.533Z,46048.00
2019-05-26T03:16:40.529Z,45600.00
2019-05-26T03:17:40.513Z,45248.00
2019-05-26T03:18:40.509Z,43008.00
2019-05-26T03:19:40.544Z,44224.00
2019-05-26T03:20:40.514Z,45472.00
2019-05-26T03:21:40.475Z,46496.00
2019-05-26T03:22:40.464Z,46016.00
2019-05-26T03:23:40.454Z,45312.00
2019-05-26T03:24:40.443Z,45952.00
2019-05-26T03:25:40.585Z,47264.00
2019-05-26T03:26:40.426Z,46784.00
2019-05-26T03:27:40.417Z,45696.00
2019-05-26T03:28:40.405Z,45472.00
2019-05-26T03:29:40.396Z,45696.00
2019-05-26T03:30:40.389Z,44640.00
2019-05-26T03:31:40.427Z,43968.00
2019-05-26T03:32:40.373Z,45568.00
2019-05-26T03:33:40.365Z,48832.00
2019-05-26T03:34:40.347Z,48896.00
2019-05-26T03:35:40.338Z,45664.00
2019-05-26T03:36:40.332Z,44736.00
2019-05-26T03:37:40.372Z,46176.00
2019-05-26T03:38:40.309Z,44864.00
2019-05-26T03:39:45.237Z,42688.00
2019-05-26T03:40:40.287Z,41888.00
2019-05-26T03:41:40.282Z,41344.00
2019-05-26T03:42:40.272Z,41984.00
2019-05-26T03:43:40.411Z,43488.00
2019-05-26T03:44:40.250Z,44576.00
2019-05-26T03:45:40.244Z,45152.00
2019-05-26T03:46:40.232Z,42592.00
2019-05-26T03:47:40.222Z,41888.00
2019-05-26T03:48:40.213Z,43456.00
2019-05-26T03:49:40.252Z,42976.00
2019-05-26T03:50:40.198Z,43008.00
2019-05-26T03:51:40.182Z,44704.00
2019-05-26T03:52:40.175Z,44672.00
2019-05-26T03:53:40.163Z,43136.00
2019-05-26T03:54:40.164Z,43168.00
2019-05-26T03:55:40.194Z,44032.00
2019-05-26T03:56:40.132Z,43872.00
2019-05-26T03:57:40.128Z,42880.00
2019-05-26T03:58:40.110Z,43552.00
2019-05-26T03:59:40.108Z,44800.00
2019-05-26T04:00:40.093Z,43552.00
2019-05-26T04:01:40.242Z,43200.00
2019-05-26T04:02:40.071Z,44128.00
2019-05-26T04:03:40.073Z,43840.00
2019-05-26T04:04:40.057Z,41856.00
2019-05-26T04:05:40.043Z,40832.00
2019-05-26T04:06:40.039Z,40800.00
2019-05-26T04:07:40.074Z,40544.00
2019-05-26T04:08:40.018Z,39008.00
2019-05-26T04:09:40.013Z,39264.00
2019-05-26T04:10:40.040Z,39872.00
2019-05-26T04:11:40.031Z,38496.00
2019-05-26T04:12:39.978Z,36960.00
2019-05-26T04:13:40.018Z,36064.00
2019-05-26T04:14:39.957Z,37184.00
2019-05-26T04:15:39.945Z,37088.00
2019-05-26T04:16:39.940Z,34848.00
2019-05-26T04:17:39.927Z,34112.00
2019-05-26T04:18:39.917Z,35232.00
2019-05-26T04:19:40.060Z,34336.00
2019-05-26T04:20:39.900Z,33088.00
2019-05-26T04:21:39.891Z,32416.00
2019-05-26T04:22:39.883Z,33216.00
2019-05-26T04:23:39.869Z,32384.00
2019-05-26T04:24:39.862Z,30144.00
2019-05-26T04:25:39.899Z,31008.00
2019-05-26T04:26:39.841Z,31232.00
2019-05-26T04:27:39.834Z,29696.00
2019-05-26T04:28:39.824Z,29472.00
2019-05-26T04:29:39.813Z,28576.00
2019-05-26T04:30:39.801Z,28768.00
2019-05-26T04:31:39.841Z,30720.00
2019-05-26T04:32:39.788Z,29792.00
2019-05-26T04:33:39.772Z,27712.00
2019-05-26T04:34:39.764Z,26080.00
2019-05-26T04:35:39.759Z,25888.00
2019-05-26T04:36:39.744Z,25664.00
2019-05-26T04:38:39.791Z,24128.00
2019-05-26T04:39:39.716Z,19856.00
2019-05-26T04:40:39.714Z,14084.00
2019-05-26T04:41:39.693Z,9852.00
2019-05-26T04:42:39.684Z,9080.00
2019-05-26T04:43:39.673Z,8868.00
2019-05-26T04:44:39.713Z,8696.00
2019-05-26T04:45:39.654Z,8540.00
2019-05-26T04:46:39.640Z,8396.00
2019-05-26T04:47:39.638Z,8280.00
2019-05-26T04:48:39.622Z,8144.00
2019-05-26T04:49:40.013Z,8048.00
2019-05-26T04:50:39.606Z,7940.00
2019-05-26T04:51:39.595Z,7820.00
2019-05-26T04:52:39.586Z,7728.00
2019-05-26T04:53:39.572Z,7632.00
2019-05-26T04:54:39.563Z,7536.00
2019-05-26T04:55:39.601Z,7432.00
2019-05-26T04:56:39.548Z,7356.00
2019-05-26T04:57:39.556Z,7256.00
2019-05-26T04:58:39.526Z,7172.00
2019-05-26T04:59:39.518Z,7084.00
2019-05-26T05:00:39.503Z,7000.00
2019-05-26T05:01:39.542Z,6908.00
2019-05-26T05:02:39.483Z,6832.00
2019-05-26T05:03:39.476Z,6748.00
2019-05-26T05:04:39.467Z,6676.00
2019-05-26T05:05:39.457Z,6596.00
2019-05-26T05:06:39.447Z,6528.00
2019-05-26T05:07:39.584Z,6436.00
2019-05-26T05:08:39.427Z,6344.00
2019-05-26T05:09:39.418Z,6272.00
2019-05-26T05:10:42.634Z,6204.00
2019-05-26T05:11:39.402Z,6128.00
2019-05-26T05:12:39.388Z,6064.00
2019-05-26T05:13:39.433Z,5996.00
2019-05-26T05:14:39.367Z,5936.00
2019-05-26T05:15:39.358Z,5880.00
2019-05-26T05:16:39.349Z,5828.00
2019-05-26T05:17:39.341Z,5776.00
2019-05-26T05:18:39.327Z,5728.00
2019-05-26T05:19:39.370Z,5688.00
2019-05-26T05:20:39.311Z,5644.00
2019-05-26T05:21:39.299Z,5596.00
2019-05-26T05:22:39.293Z,5548.00
2019-05-26T05:23:39.278Z,5512.00
2019-05-26T05:24:39.270Z,5476.00
2019-05-26T05:25:39.411Z,5436.00
2019-05-26T05:26:39.250Z,5396.00
2019-05-26T05:27:39.240Z,5356.00
2019-05-26T05:28:39.237Z,5324.00
2019-05-26T05:29:39.225Z,5292.00
2019-05-26T05:30:39.209Z,5244.00
2019-05-26T05:31:39.250Z,5208.00
2019-05-26T05:32:39.191Z,5156.00
2019-05-26T05:33:39.180Z,5136.00
2019-05-26T05:34:39.184Z,5088.00
2019-05-26T05:35:39.159Z,5056.00
2019-05-26T05:36:39.151Z,5016.00
2019-05-26T05:37:39.188Z,4992.00
2019-05-26T05:38:39.131Z,4960.00
2019-05-26T05:39:39.117Z,4928.00
2019-05-26T05:40:39.108Z,4892.00
2019-05-26T05:41:39.097Z,4832.00
2019-05-26T05:42:39.087Z,4724.00
2019-05-26T05:43:39.225Z,4568.00
2019-05-26T05:44:39.073Z,4296.00
2019-05-26T05:45:39.055Z,4060.00
2019-05-26T05:46:39.045Z,3992.00
2019-05-26T05:47:39.035Z,4000.00
2019-05-26T05:48:39.028Z,3988.00
2019-05-26T05:49:39.115Z,4000.00
2019-05-26T05:50:39.574Z,3988.00
2019-05-26T05:51:38.994Z,3984.00
2019-05-26T05:52:38.984Z,3960.00
2019-05-26T05:53:38.976Z,3944.00
2019-05-26T05:54:38.966Z,3920.00
2019-05-26T05:55:39.006Z,3908.00
2019-05-26T05:56:38.942Z,3884.00
2019-05-26T05:57:38.971Z,3864.00
2019-05-26T05:58:38.921Z,3840.00
2019-05-26T05:59:38.911Z,3816.00
2019-05-26T06:00:38.902Z,3792.00
2019-05-26T06:01:39.043Z,3768.00
2019-05-26T06:02:38.885Z,3756.00
2019-05-26T06:03:38.869Z,3744.00
2019-05-26T06:04:38.862Z,3736.00
2019-05-26T06:05:38.909Z,3720.00
2019-05-26T06:06:38.840Z,3716.00
2019-05-26T06:07:38.931Z,3700.00
2019-05-26T06:08:38.823Z,3700.00
2019-05-26T06:09:38.818Z,3684.00
2019-05-26T06:10:38.799Z,3668.00
2019-05-26T06:11:38.791Z,3660.00
2019-05-26T06:12:38.792Z,3664.00
2019-05-26T06:13:38.822Z,3664.00
2019-05-26T06:14:38.762Z,3648.00
2019-05-26T06:15:38.755Z,3656.00
2019-05-26T06:16:38.740Z,3644.00
2019-05-26T06:17:38.730Z,3632.00
2019-05-26T06:18:38.718Z,3628.00
2019-05-26T06:19:38.957Z,3628.00
2019-05-26T06:20:38.698Z,3632.00
2019-05-26T06:21:38.687Z,3644.00
2019-05-26T06:22:38.677Z,3652.00
2019-05-26T06:23:38.668Z,3632.00
2019-05-26T06:24:38.757Z,3604.00
2019-05-26T06:25:38.649Z,3564.00
2019-05-26T06:26:38.638Z,3544.00
2019-05-26T06:27:38.628Z,3548.00
2019-05-26T06:28:38.618Z,3540.00
2019-05-26T06:29:38.659Z,3540.00
2019-05-26T06:30:38.599Z,3544.00
2019-05-26T06:31:38.639Z,3536.00
2019-05-26T06:32:38.579Z,3528.00
2019-05-26T06:33:38.567Z,3520.00
2019-05-26T06:34:38.556Z,3508.00
2019-05-26T06:35:38.597Z,3508.00
2019-05-26T06:36:38.539Z,3504.00
2019-05-26T06:37:38.526Z,3504.00
2019-05-26T06:38:38.515Z,3508.00
2019-05-26T06:39:38.509Z,3520.00
2019-05-26T06:40:38.648Z,3544.00
2019-05-26T06:41:38.484Z,3556.00
2019-05-26T06:42:38.481Z,3556.00
2019-05-26T06:43:38.528Z,3552.00
2019-05-26T06:44:52.474Z,3536.00
2019-05-26T06:45:39.590Z,3540.00
2019-05-26T06:46:38.436Z,3524.00
2019-05-26T06:47:38.451Z,3488.00
2019-05-26T06:48:38.413Z,3456.00
2019-05-26T06:49:38.403Z,3436.00
2019-05-26T06:50:38.393Z,3424.00
2019-05-26T06:51:38.433Z,3424.00
2019-05-26T06:52:38.373Z,3420.00
2019-05-26T06:53:38.361Z,3416.00
2019-05-26T06:54:38.349Z,3412.00
2019-05-26T06:55:38.344Z,3428.00
2019-05-26T06:56:38.331Z,3444.00
2019-05-26T06:57:38.471Z,3448.00
2019-05-26T06:58:38.310Z,3440.00
2019-05-26T06:59:38.299Z,3432.00
2019-05-26T07:00:38.291Z,3432.00
2019-05-26T07:01:38.278Z,3428.00
2019-05-26T07:02:38.291Z,3420.00
2019-05-26T07:04:38.345Z,3396.00
2019-05-26T07:05:38.236Z,3380.00
2019-05-26T07:06:38.222Z,3380.00
2019-05-26T07:07:38.219Z,3384.00
2019-05-26T07:08:38.201Z,3360.00
2019-05-26T07:09:38.191Z,3324.00
2019-05-26T07:10:38.231Z,3304.00
2019-05-26T07:11:51.698Z,3300.00
2019-05-26T07:13:02.974Z,3320.00
2019-05-26T07:14:02.964Z,3352.00
2019-05-26T07:15:02.951Z,3364.00
2019-05-26T07:16:02.989Z,3360.00
2019-05-26T07:17:02.932Z,3364.00
2019-05-26T07:18:02.920Z,3352.00
2019-05-26T07:19:02.908Z,3356.00
2019-05-26T07:20:02.901Z,3372.00
2019-05-26T07:21:02.896Z,3412.00
2019-05-26T07:23:03.397Z,3504.00
2019-05-26T07:24:02.855Z,3556.00
2019-05-26T07:25:02.846Z,3528.00
2019-05-26T07:26:02.833Z,3520.00
2019-05-26T07:27:02.899Z,3560.00
2019-05-26T07:28:02.816Z,3528.00
2019-05-26T07:29:02.850Z,3452.00
2019-05-26T07:30:02.790Z,3388.00
2019-05-26T07:31:02.779Z,3340.00
2019-05-26T07:32:02.912Z,3356.00
2019-05-26T07:33:02.759Z,3392.00
2019-05-26T07:34:02.748Z,3444.00
2019-05-26T07:35:02.839Z,3456.00
2019-05-26T07:36:02.729Z,3412.00
2019-05-26T07:37:02.717Z,3356.00
2019-05-26T07:38:02.707Z,3336.00
2019-05-26T07:39:02.697Z,3332.00
2019-05-26T07:40:02.683Z,3280.00
2019-05-26T07:41:02.824Z,3264.00
2019-05-26T07:42:10.024Z,3260.00
2019-05-26T07:43:28.290Z,3264.00
2019-05-26T07:44:27.455Z,3264.00
2019-05-26T07:45:27.443Z,3276.00
2019-05-26T07:46:27.530Z,3276.00
2019-05-26T07:47:27.419Z,3312.00
2019-05-26T07:48:27.411Z,3376.00
2019-05-26T07:49:27.399Z,3396.00
2019-05-26T07:50:27.391Z,3392.00
2019-05-26T07:51:27.386Z,3368.00
2019-05-26T07:52:27.467Z,3352.00
2019-05-26T07:53:27.357Z,3352.00
2019-05-26T07:54:27.345Z,3348.00
2019-05-26T07:55:27.336Z,3340.00
2019-05-26T07:56:27.331Z,3328.00
2019-05-26T07:57:27.386Z,3324.00
2019-05-26T07:58:27.555Z,3324.00
2019-05-26T07:59:27.294Z,3324.00
2019-05-26T08:00:27.281Z,3308.00
2019-05-26T08:01:35.645Z,3296.00
2019-05-26T08:02:52.076Z,3284.00
2019-05-26T08:03:52.113Z,3284.00
2019-05-26T08:04:52.050Z,3276.00
2019-05-26T08:05:52.040Z,3272.00
2019-05-26T08:06:52.033Z,3276.00
2019-05-26T08:07:52.024Z,3268.00
2019-05-26T08:08:52.008Z,3268.00
2019-05-26T08:09:52.100Z,3256.00
2019-05-26T08:10:51.995Z,3240.00
2019-05-26T08:11:51.978Z,3224.00
2019-05-26T08:12:51.967Z,3208.00
2019-05-26T08:13:51.956Z,3196.00
2019-05-26T08:14:51.945Z,3176.00
2019-05-26T08:15:52.136Z,3160.00
2019-05-26T08:16:51.924Z,3152.00
2019-05-26T08:17:51.914Z,3160.00
2019-05-26T08:18:51.902Z,3148.00
2019-05-26T08:19:51.918Z,3144.00
2019-05-26T08:20:51.880Z,3144.00
2019-05-26T08:21:54.584Z,3144.00
2019-05-26T08:22:51.861Z,3140.00
2019-05-26T08:23:51.847Z,3140.00
2019-05-26T08:24:51.840Z,3132.00
2019-05-26T08:25:51.861Z,3116.00
2019-05-26T08:26:51.820Z,3096.00
2019-05-26T08:27:51.859Z,3080.00
2019-05-26T08:28:51.797Z,3068.00
2019-05-26T08:29:51.787Z,3064.00
2019-05-26T08:30:51.826Z,3056.00
2019-05-26T08:31:51.765Z,3052.00
2019-05-26T08:32:51.755Z,3044.00
2019-05-26T08:33:51.998Z,3044.00
2019-05-26T08:34:51.737Z,3032.00
2019-05-26T08:35:51.723Z,3032.00
2019-05-26T08:36:51.712Z,3032.00
2019-05-26T08:37:51.711Z,3024.00
2019-05-26T08:38:51.701Z,3020.00
2019-05-26T08:39:51.734Z,3016.00
2019-05-26T08:40:51.673Z,3012.00
2019-05-26T08:41:51.661Z,3008.00
2019-05-26T08:42:51.651Z,2996.00
2019-05-26T08:43:51.645Z,2992.00
2019-05-26T08:44:51.629Z,2988.00
2019-05-26T08:45:51.669Z,2992.00
2019-05-26T08:46:51.613Z,2988.00
2019-05-26T08:47:51.599Z,2984.00
2019-05-26T08:48:51.589Z,2992.00
2019-05-26T08:49:51.575Z,2984.00
2019-05-26T08:50:51.567Z,2980.00
2019-05-26T08:51:51.703Z,2980.00
2019-05-26T08:52:51.545Z,2976.00
2019-05-26T08:53:51.533Z,2976.00
2019-05-26T08:54:51.525Z,2976.00
2019-05-26T08:55:51.512Z,2976.00
2019-05-26T08:56:51.506Z,2980.00
2019-05-26T08:57:51.589Z,2988.00
2019-05-26T08:58:51.481Z,2996.00
2019-05-26T08:59:51.475Z,2996.00
2019-05-26T09:00:51.464Z,2984.00
2019-05-26T09:01:51.455Z,2968.00
2019-05-26T09:02:51.439Z,2956.00
2019-05-26T09:03:51.481Z,2948.00
2019-05-26T09:04:51.455Z,2940.00
2019-05-26T09:05:51.408Z,2932.00
2019-05-26T09:06:51.399Z,2924.00
2019-05-26T09:07:51.387Z,2912.00
2019-05-26T09:08:51.377Z,2904.00
2019-05-26T09:09:51.516Z,2900.00
2019-05-26T09:10:51.355Z,2896.00
2019-05-26T09:11:51.347Z,2888.00
2019-05-26T09:13:00.871Z,2884.00
2019-05-26T09:13:52.422Z,2884.00
2019-05-26T09:14:51.319Z,2876.00
2019-05-26T09:15:51.355Z,2872.00
2019-05-26T09:16:51.293Z,2868.00
2019-05-26T09:17:51.286Z,2868.00
2019-05-26T09:18:51.277Z,2864.00
2019-05-26T09:19:51.267Z,2860.00
2019-05-26T09:20:51.254Z,2856.00
2019-05-26T09:21:51.294Z,2852.00
2019-05-26T09:22:51.236Z,2852.00
2019-05-26T09:23:51.221Z,2848.00
2019-05-26T09:24:51.210Z,2844.00
2019-05-26T09:25:51.201Z,2840.00
2019-05-26T09:26:51.193Z,2836.00
2019-05-26T09:27:51.335Z,2828.00
2019-05-26T09:28:51.170Z,2828.00
2019-05-26T09:29:51.158Z,2828.00
2019-05-26T09:30:51.153Z,2828.00
2019-05-26T09:31:51.139Z,2828.00
2019-05-26T09:33:51.168Z,2828.00
2019-05-26T09:34:51.106Z,2820.00
2019-05-26T09:35:51.095Z,2816.00
2019-05-26T09:36:51.085Z,2816.00
2019-05-26T09:37:51.075Z,2812.00
2019-05-26T09:38:51.065Z,2808.00
2019-05-26T09:39:51.105Z,2804.00
2019-05-26T09:40:51.043Z,2792.00
2019-05-26T09:41:51.031Z,2792.00
2019-05-26T09:42:51.023Z,2788.00
2019-05-26T09:43:51.012Z,2788.00
2019-05-26T09:44:51.003Z,2788.00
2019-05-26T09:45:51.149Z,2780.00
2019-05-26T09:46:50.981Z,2780.00
2019-05-26T09:47:50.971Z,2780.00
2019-05-26T09:48:50.962Z,2784.00
2019-05-26T09:49:50.947Z,2780.00
2019-05-26T09:50:50.938Z,2788.00
2019-05-26T09:51:50.978Z,2788.00
2019-05-26T09:52:50.917Z,2788.00
2019-05-26T09:54:01.186Z,2784.00
2019-05-26T09:55:15.709Z,2780.00
2019-05-26T09:56:15.699Z,2780.00
2019-05-26T09:57:15.739Z,2780.00
2019-05-26T09:58:15.674Z,2780.00
2019-05-26T09:59:15.664Z,2780.00
2019-05-26T10:00:16.336Z,2784.00
2019-05-26T10:01:15.642Z,2772.00
2019-05-26T10:02:15.631Z,2772.00
2019-05-26T10:03:15.769Z,2776.00
2019-05-26T10:04:15.610Z,2784.00
2019-05-26T10:05:15.775Z,2784.00
2019-05-26T10:06:15.587Z,2780.00
2019-05-26T10:07:16.125Z,2776.00
2019-05-26T10:08:15.566Z,2780.00
2019-05-26T10:09:15.606Z,2780.00
2019-05-26T10:10:15.544Z,2780.00
2019-05-26T10:11:15.531Z,2780.00
2019-05-26T10:12:15.523Z,2776.00
2019-05-26T10:13:29.100Z,2776.00
2019-05-26T10:14:40.359Z,2784.00
2019-05-26T10:15:40.348Z,2780.00
2019-05-26T10:16:40.338Z,2776.00
2019-05-26T10:17:40.330Z,2772.00
2019-05-26T10:18:40.316Z,2776.00
2019-05-26T10:19:40.456Z,2768.00
2019-05-26T10:20:40.295Z,2772.00
2019-05-26T10:21:40.282Z,2772.00
2019-05-26T10:22:40.287Z,2772.00
2019-05-26T10:23:40.263Z,2764.00
2019-05-26T10:24:40.251Z,2760.00
2019-05-26T10:25:40.291Z,2756.00
2019-05-26T10:26:40.234Z,2756.00
2019-05-26T10:27:40.221Z,2756.00
2019-05-26T10:28:40.210Z,2752.00
2019-05-26T10:29:40.201Z,2756.00
2019-05-26T10:30:40.187Z,2752.00
2019-05-26T10:31:40.275Z,2752.00
2019-05-26T10:32:40.167Z,2740.00
2019-05-26T10:33:40.156Z,2728.00
2019-05-26T10:34:40.147Z,2712.00
2019-05-26T10:35:40.136Z,2700.00
2019-05-26T10:36:40.124Z,2692.00
2019-05-26T10:37:40.325Z,2696.00
2019-05-26T10:38:40.101Z,2696.00
2019-05-26T10:39:40.091Z,2696.00
2019-05-26T10:40:40.077Z,2696.00
2019-05-26T10:41:40.068Z,2692.00
2019-05-26T10:43:47.437Z,2692.00
2019-05-26T10:45:04.849Z,2692.00
2019-05-26T10:46:04.837Z,2684.00
2019-05-26T10:47:04.827Z,2688.00
2019-05-26T10:48:04.815Z,2692.00
2019-05-26T10:49:04.854Z,2688.00
2019-05-26T10:50:04.795Z,2684.00
2019-05-26T10:51:06.856Z,2684.00
2019-05-26T10:52:04.774Z,2680.00
2019-05-26T10:53:04.763Z,2680.00
2019-05-26T10:54:04.754Z,2672.00
2019-05-26T10:55:04.791Z,2672.00
2019-05-26T10:56:04.730Z,2672.00
2019-05-26T10:57:04.720Z,2676.00
2019-05-26T10:58:04.710Z,2668.00
2019-05-26T10:59:04.700Z,2668.00
2019-05-26T11:00:04.939Z,2668.00
2019-05-26T11:01:04.677Z,2668.00
2019-05-26T11:02:04.666Z,2664.00
2019-05-26T11:03:04.655Z,2660.00
2019-05-26T11:04:04.644Z,2656.00
2019-05-26T11:05:04.632Z,2656.00
2019-05-26T11:06:04.675Z,2656.00
2019-05-26T11:07:04.622Z,2656.00
2019-05-26T11:08:04.607Z,2648.00
2019-05-26T11:09:04.599Z,2644.00
2019-05-26T11:10:04.583Z,2640.00
2019-05-26T11:11:04.569Z,2640.00
2019-05-26T11:12:04.662Z,2636.00
2019-05-26T11:13:04.551Z,2632.00
2019-05-26T11:14:04.542Z,2628.00
2019-05-26T11:15:04.529Z,2624.00
2019-05-26T11:16:04.531Z,2620.00
2019-05-26T11:17:04.523Z,2616.00
2019-05-26T11:18:04.647Z,2616.00
2019-05-26T11:19:04.489Z,2612.00
2019-05-26T11:20:04.477Z,2616.00
2019-05-26T11:21:04.466Z,2620.00
2019-05-26T11:22:04.456Z,2624.00
2019-05-26T11:23:04.446Z,2612.00
2019-05-26T11:24:04.536Z,2604.00
2019-05-26T11:25:04.430Z,2596.00
2019-05-26T11:26:04.413Z,2596.00
2019-05-26T11:27:10.292Z,2596.00
2019-05-26T11:28:05.485Z,2596.00
2019-05-26T11:29:04.381Z,2588.00
2019-05-26T11:30:04.419Z,2580.00
2019-05-26T11:31:04.362Z,2572.00
2019-05-26T11:32:04.353Z,2568.00
2019-05-26T11:33:04.342Z,2564.00
2019-05-26T11:34:04.332Z,2560.00
2019-05-26T11:35:04.317Z,2556.00
2019-05-26T11:37:04.576Z,2548.00
2019-05-26T11:38:04.288Z,2540.00
2019-05-26T11:39:04.276Z,2536.00
2019-05-26T11:40:04.264Z,2528.00
2019-05-26T11:41:04.258Z,2520.00
2019-05-26T11:42:12.725Z,2516.00
2019-05-26T11:43:29.047Z,2504.00
2019-05-26T11:44:29.035Z,2496.00
2019-05-26T11:45:29.023Z,2488.00
2019-05-26T11:46:29.010Z,2484.00
2019-05-26T11:48:29.093Z,2472.00
2019-05-26T11:49:28.980Z,2468.00
2019-05-26T11:50:28.972Z,2468.00
2019-05-26T11:51:28.960Z,2464.00
2019-05-26T11:52:28.946Z,2456.00
2019-05-26T11:53:28.936Z,2456.00
2019-05-26T11:54:29.081Z,2452.00
2019-05-26T11:55:28.917Z,2448.00
2019-05-26T11:56:28.906Z,2436.00
2019-05-26T11:57:28.915Z,2432.00
2019-05-26T11:58:28.883Z,2424.00
2019-05-26T11:59:28.876Z,2420.00
2019-05-26T12:00:28.911Z,2416.00
2019-05-26T12:01:28.849Z,2408.00
2019-05-26T12:02:28.842Z,2404.00
2019-05-26T12:03:28.830Z,2400.00
2019-05-26T12:04:28.819Z,2392.00
2019-05-26T12:05:28.807Z,2388.00
2019-05-26T12:06:28.898Z,2380.00
2019-05-26T12:07:28.818Z,2376.00
2019-05-26T12:08:28.773Z,2372.00
2019-05-26T12:09:28.870Z,2364.00
2019-05-26T12:10:28.754Z,2356.00
2019-05-26T12:11:28.743Z,2356.00
2019-05-26T12:12:28.882Z,2348.00
2019-05-26T12:13:28.721Z,2344.00